sensor_id;sensor_type;location;lat;lon;timestamp;P1;durP1;ratioP1;P2;durP2;ratioP2
76953;SDS011;65893;51.698;-0.292;2023-02-21T00:00:43;5.53;;;1.77;;
76953;SDS011;65893;51.698;-0.292;2023-02-21T00:03:28;6.00;;;2.22;;
76953;SDS011;65893;51.698;-0.292;2023-02-21T00:08:57;4.47;;;1.92;;
76953;SDS011;65893;51.698;-0.292;2023-02-21T00:14:27;6.40;;;2.38;;
76953;SDS011;65893;51.698;-0.292;2023-02-21T00:17:11;4.75;;;1.95;;
76953;SDS011;65893;51.698;-0.292;2023-02-21T00:22:41;5.38;;;1.90;;
76953;SDS011;65893;51.698;-0.292;2023-02-21T00:25:25;5.35;;;2.13;;
76953;SDS011;65893;51.698;-0.292;2023-02-21T00:28:10;3.80;;;1.42;;
76953;SDS011;65893;51.698;-0.292;2023-02-21T00:30:55;4.88;;;1.67;;
76953;SDS011;65893;51.698;-0.292;2023-02-21T00:36:24;4.65;;;2.00;;
76953;SDS011;65893;51.698;-0.292;2023-02-21T00:39:09;4.97;;;1.90;;
76953;SDS011;65893;51.698;-0.292;2023-02-21T00:44:39;5.38;;;2.30;;
76953;SDS011;65893;51.698;-0.292;2023-02-21T00:47:24;5.68;;;1.73;;
76953;SDS011;65893;51.698;-0.292;2023-02-21T00:50:09;5.63;;;2.08;;
76953;SDS011;65893;51.698;-0.292;2023-02-21T00:52:54;5.47;;;2.17;;
76953;SDS011;65893;51.698;-0.292;2023-02-21T00:55:38;5.45;;;1.92;;
76953;SDS011;65893;51.698;-0.292;2023-02-21T01:01:07;6.18;;;2.35;;
76953;SDS011;65893;51.698;-0.292;2023-02-21T01:03:52;6.25;;;2.65;;
76953;SDS011;65893;51.698;-0.292;2023-02-21T01:06:37;5.72;;;2.20;;
76953;SDS011;65893;51.698;-0.292;2023-02-21T01:09:21;5.95;;;2.40;;
76953;SDS011;65893;51.698;-0.292;2023-02-21T01:12:06;5.53;;;2.40;;
76953;SDS011;65893;51.698;-0.292;2023-02-21T01:14:51;5.28;;;2.67;;
76953;SDS011;65893;51.698;-0.292;2023-02-21T01:20:20;5.28;;;2.53;;
76953;SDS011;65893;51.698;-0.292;2023-02-21T01:25:52;5.15;;;2.40;;
76953;SDS011;65893;51.698;-0.292;2023-02-21T01:28:36;7.70;;;2.78;;
76953;SDS011;65893;51.698;-0.292;2023-02-21T01:34:06;8.07;;;3.00;;
76953;SDS011;65893;51.698;-0.292;2023-02-21T01:36:51;5.72;;;2.83;;
76953;SDS011;65893;51.698;-0.292;2023-02-21T01:39:36;5.60;;;2.33;;
76953;SDS011;65893;51.698;-0.292;2023-02-21T01:42:21;5.90;;;2.58;;
76953;SDS011;65893;51.698;-0.292;2023-02-21T01:48:11;6.63;;;2.72;;
76953;SDS011;65893;51.698;-0.292;2023-02-21T01:50:56;6.90;;;2.78;;
76953;SDS011;65893;51.698;-0.292;2023-02-21T01:53:42;7.72;;;3.00;;
76953;SDS011;65893;51.698;-0.292;2023-02-21T01:56:28;6.28;;;2.65;;
76953;SDS011;65893;51.698;-0.292;2023-02-21T01:59:14;6.63;;;2.55;;
76953;SDS011;65893;51.698;-0.292;2023-02-21T02:02:02;6.03;;;2.55;;
76953;SDS011;65893;51.698;-0.292;2023-02-21T02:04:48;6.55;;;2.63;;
76953;SDS011;65893;51.698;-0.292;2023-02-21T02:07:35;6.15;;;1.98;;
76953;SDS011;65893;51.698;-0.292;2023-02-21T02:10:19;6.00;;;2.58;;
76953;SDS011;65893;51.698;-0.292;2023-02-21T02:15:55;8.75;;;3.00;;
76953;SDS011;65893;51.698;-0.292;2023-02-21T02:21:06;6.80;;;3.35;;
76953;SDS011;65893;51.698;-0.292;2023-02-21T02:28:55;6.10;;;2.53;;
76953;SDS011;65893;51.698;-0.292;2023-02-21T02:37:15;7.40;;;2.97;;
76953;SDS011;65893;51.698;-0.292;2023-02-21T02:39:57;8.70;;;3.33;;
76953;SDS011;65893;51.698;-0.292;2023-02-21T02:44:56;7.32;;;3.45;;
76953;SDS011;65893;51.698;-0.292;2023-02-21T02:47:27;7.13;;;3.28;;
76953;SDS011;65893;51.698;-0.292;2023-02-21T02:49:54;6.55;;;2.60;;
76953;SDS011;65893;51.698;-0.292;2023-02-21T02:52:22;7.20;;;3.15;;
76953;SDS011;65893;51.698;-0.292;2023-02-21T02:54:59;7.80;;;3.30;;
76953;SDS011;65893;51.698;-0.292;2023-02-21T02:57:26;7.03;;;3.13;;
76953;SDS011;65893;51.698;-0.292;2023-02-21T02:59:53;6.68;;;3.03;;
76953;SDS011;65893;51.698;-0.292;2023-02-21T03:10:22;9.07;;;3.53;;
76953;SDS011;65893;51.698;-0.292;2023-02-21T03:15:46;7.78;;;3.60;;
76953;SDS011;65893;51.698;-0.292;2023-02-21T03:20:39;7.43;;;3.20;;
76953;SDS011;65893;51.698;-0.292;2023-02-21T03:23:07;7.60;;;3.40;;
76953;SDS011;65893;51.698;-0.292;2023-02-21T03:25:34;7.78;;;3.58;;
76953;SDS011;65893;51.698;-0.292;2023-02-21T03:28:01;9.80;;;3.50;;
76953;SDS011;65893;51.698;-0.292;2023-02-21T03:30:30;8.27;;;3.40;;
76953;SDS011;65893;51.698;-0.292;2023-02-21T03:32:56;8.00;;;3.55;;
76953;SDS011;65893;51.698;-0.292;2023-02-21T03:35:22;8.70;;;3.90;;
76953;SDS011;65893;51.698;-0.292;2023-02-21T03:37:59;8.43;;;4.13;;
76953;SDS011;65893;51.698;-0.292;2023-02-21T03:40:26;8.93;;;3.83;;
76953;SDS011;65893;51.698;-0.292;2023-02-21T03:42:53;8.35;;;4.07;;
76953;SDS011;65893;51.698;-0.292;2023-02-21T03:45:19;8.00;;;3.30;;
76953;SDS011;65893;51.698;-0.292;2023-02-21T03:47:46;9.05;;;4.07;;
76953;SDS011;65893;51.698;-0.292;2023-02-21T03:50:12;8.80;;;3.60;;
76953;SDS011;65893;51.698;-0.292;2023-02-21T03:52:38;8.65;;;4.15;;
76953;SDS011;65893;51.698;-0.292;2023-02-21T03:55:04;8.32;;;3.92;;
76953;SDS011;65893;51.698;-0.292;2023-02-21T03:57:31;7.63;;;3.85;;
76953;SDS011;65893;51.698;-0.292;2023-02-21T03:59:57;14.38;;;4.00;;
76953;SDS011;65893;51.698;-0.292;2023-02-21T04:02:23;9.52;;;4.57;;
76953;SDS011;65893;51.698;-0.292;2023-02-21T04:04:49;9.77;;;4.45;;
76953;SDS011;65893;51.698;-0.292;2023-02-21T04:07:16;10.20;;;4.25;;
76953;SDS011;65893;51.698;-0.292;2023-02-21T04:09:42;9.52;;;4.20;;
76953;SDS011;65893;51.698;-0.292;2023-02-21T04:12:08;8.93;;;4.20;;
76953;SDS011;65893;51.698;-0.292;2023-02-21T04:14:34;10.15;;;4.78;;
76953;SDS011;65893;51.698;-0.292;2023-02-21T04:17:00;9.48;;;3.97;;
76953;SDS011;65893;51.698;-0.292;2023-02-21T04:19:28;8.43;;;3.35;;
76953;SDS011;65893;51.698;-0.292;2023-02-21T04:21:54;10.32;;;4.93;;
76953;SDS011;65893;51.698;-0.292;2023-02-21T04:24:20;9.07;;;4.18;;
76953;SDS011;65893;51.698;-0.292;2023-02-21T04:26:46;9.38;;;4.15;;
76953;SDS011;65893;51.698;-0.292;2023-02-21T04:29:12;8.48;;;4.80;;
76953;SDS011;65893;51.698;-0.292;2023-02-21T04:31:38;10.60;;;4.93;;
76953;SDS011;65893;51.698;-0.292;2023-02-21T04:34:07;9.77;;;3.83;;
76953;SDS011;65893;51.698;-0.292;2023-02-21T04:36:33;11.57;;;4.13;;
76953;SDS011;65893;51.698;-0.292;2023-02-21T04:39:01;10.25;;;4.75;;
76953;SDS011;65893;51.698;-0.292;2023-02-21T04:41:27;10.32;;;4.70;;
76953;SDS011;65893;51.698;-0.292;2023-02-21T04:43:53;9.88;;;4.18;;
76953;SDS011;65893;51.698;-0.292;2023-02-21T04:46:19;9.80;;;4.70;;
76953;SDS011;65893;51.698;-0.292;2023-02-21T04:48:47;9.73;;;4.30;;
76953;SDS011;65893;51.698;-0.292;2023-02-21T04:51:14;10.63;;;4.82;;
76953;SDS011;65893;51.698;-0.292;2023-02-21T04:53:40;9.45;;;4.00;;
76953;SDS011;65893;51.698;-0.292;2023-02-21T04:56:07;12.10;;;4.45;;
76953;SDS011;65893;51.698;-0.292;2023-02-21T04:58:33;8.77;;;4.25;;
76953;SDS011;65893;51.698;-0.292;2023-02-21T05:00:59;9.68;;;4.18;;
76953;SDS011;65893;51.698;-0.292;2023-02-21T05:03:25;8.75;;;3.72;;
76953;SDS011;65893;51.698;-0.292;2023-02-21T05:05:51;11.18;;;4.05;;
76953;SDS011;65893;51.698;-0.292;2023-02-21T05:08:17;9.50;;;4.20;;
76953;SDS011;65893;51.698;-0.292;2023-02-21T05:10:43;7.85;;;3.70;;
76953;SDS011;65893;51.698;-0.292;2023-02-21T05:13:10;9.13;;;4.15;;
76953;SDS011;65893;51.698;-0.292;2023-02-21T05:15:36;9.80;;;4.00;;
76953;SDS011;65893;51.698;-0.292;2023-02-21T05:18:02;8.70;;;3.47;;
76953;SDS011;65893;51.698;-0.292;2023-02-21T05:20:28;10.13;;;4.25;;
76953;SDS011;65893;51.698;-0.292;2023-02-21T05:22:54;9.65;;;4.30;;
76953;SDS011;65893;51.698;-0.292;2023-02-21T05:25:21;8.82;;;3.90;;
76953;SDS011;65893;51.698;-0.292;2023-02-21T05:27:48;9.10;;;3.60;;
76953;SDS011;65893;51.698;-0.292;2023-02-21T05:30:15;10.85;;;4.15;;
76953;SDS011;65893;51.698;-0.292;2023-02-21T05:32:41;9.60;;;4.63;;
76953;SDS011;65893;51.698;-0.292;2023-02-21T05:35:08;9.68;;;4.20;;
76953;SDS011;65893;51.698;-0.292;2023-02-21T05:37:35;10.02;;;4.05;;
76953;SDS011;65893;51.698;-0.292;2023-02-21T05:40:01;12.00;;;4.72;;
76953;SDS011;65893;51.698;-0.292;2023-02-21T05:42:29;9.35;;;4.00;;
76953;SDS011;65893;51.698;-0.292;2023-02-21T05:44:55;11.75;;;4.53;;
76953;SDS011;65893;51.698;-0.292;2023-02-21T05:47:22;9.32;;;4.18;;
76953;SDS011;65893;51.698;-0.292;2023-02-21T05:49:48;10.38;;;4.60;;
76953;SDS011;65893;51.698;-0.292;2023-02-21T05:52:15;11.27;;;4.55;;
76953;SDS011;65893;51.698;-0.292;2023-02-21T05:54:41;11.05;;;4.47;;
76953;SDS011;65893;51.698;-0.292;2023-02-21T05:57:07;11.82;;;4.95;;
76953;SDS011;65893;51.698;-0.292;2023-02-21T05:59:33;10.82;;;4.30;;
76953;SDS011;65893;51.698;-0.292;2023-02-21T06:01:59;11.85;;;4.00;;
76953;SDS011;65893;51.698;-0.292;2023-02-21T06:04:25;10.38;;;3.90;;
76953;SDS011;65893;51.698;-0.292;2023-02-21T06:06:51;10.82;;;4.55;;
76953;SDS011;65893;51.698;-0.292;2023-02-21T06:09:18;11.15;;;4.70;;
76953;SDS011;65893;51.698;-0.292;2023-02-21T06:11:44;9.70;;;4.30;;
76953;SDS011;65893;51.698;-0.292;2023-02-21T06:14:17;13.85;;;4.32;;
76953;SDS011;65893;51.698;-0.292;2023-02-21T06:16:44;10.60;;;4.45;;
76953;SDS011;65893;51.698;-0.292;2023-02-21T06:19:13;10.60;;;4.35;;
76953;SDS011;65893;51.698;-0.292;2023-02-21T06:21:40;11.25;;;4.68;;
76953;SDS011;65893;51.698;-0.292;2023-02-21T06:24:07;11.55;;;5.22;;
76953;SDS011;65893;51.698;-0.292;2023-02-21T06:26:33;10.32;;;4.30;;
76953;SDS011;65893;51.698;-0.292;2023-02-21T06:28:59;10.57;;;4.32;;
76953;SDS011;65893;51.698;-0.292;2023-02-21T06:31:25;12.48;;;4.82;;
76953;SDS011;65893;51.698;-0.292;2023-02-21T06:33:51;13.35;;;5.45;;
76953;SDS011;65893;51.698;-0.292;2023-02-21T06:36:19;12.10;;;4.30;;
76953;SDS011;65893;51.698;-0.292;2023-02-21T06:38:46;10.98;;;4.30;;
76953;SDS011;65893;51.698;-0.292;2023-02-21T06:41:14;11.98;;;4.38;;
76953;SDS011;65893;51.698;-0.292;2023-02-21T06:43:40;11.35;;;4.05;;
76953;SDS011;65893;51.698;-0.292;2023-02-21T06:46:06;10.15;;;3.50;;
76953;SDS011;65893;51.698;-0.292;2023-02-21T06:48:32;10.38;;;4.30;;
76953;SDS011;65893;51.698;-0.292;2023-02-21T06:50:58;12.25;;;4.35;;
76953;SDS011;65893;51.698;-0.292;2023-02-21T06:53:24;11.48;;;5.25;;
76953;SDS011;65893;51.698;-0.292;2023-02-21T06:55:51;11.95;;;4.60;;
76953;SDS011;65893;51.698;-0.292;2023-02-21T06:58:17;13.00;;;4.38;;
76953;SDS011;65893;51.698;-0.292;2023-02-21T07:00:43;12.95;;;5.53;;
76953;SDS011;65893;51.698;-0.292;2023-02-21T07:03:10;10.07;;;4.47;;
76953;SDS011;65893;51.698;-0.292;2023-02-21T07:05:36;11.95;;;4.50;;
76953;SDS011;65893;51.698;-0.292;2023-02-21T07:08:03;11.50;;;4.90;;
76953;SDS011;65893;51.698;-0.292;2023-02-21T07:10:29;10.98;;;4.57;;
76953;SDS011;65893;51.698;-0.292;2023-02-21T07:12:55;14.60;;;5.70;;
76953;SDS011;65893;51.698;-0.292;2023-02-21T07:15:21;13.85;;;5.35;;
76953;SDS011;65893;51.698;-0.292;2023-02-21T07:17:47;12.80;;;3.95;;
76953;SDS011;65893;51.698;-0.292;2023-02-21T07:20:13;12.90;;;4.60;;
76953;SDS011;65893;51.698;-0.292;2023-02-21T07:22:39;12.38;;;4.28;;
76953;SDS011;65893;51.698;-0.292;2023-02-21T07:25:06;12.38;;;4.40;;
76953;SDS011;65893;51.698;-0.292;2023-02-21T07:27:32;12.13;;;4.35;;
76953;SDS011;65893;51.698;-0.292;2023-02-21T07:29:58;10.10;;;3.67;;
76953;SDS011;65893;51.698;-0.292;2023-02-21T07:32:24;11.13;;;4.03;;
76953;SDS011;65893;51.698;-0.292;2023-02-21T07:34:51;10.38;;;4.20;;
76953;SDS011;65893;51.698;-0.292;2023-02-21T07:37:17;10.65;;;3.95;;
76953;SDS011;65893;51.698;-0.292;2023-02-21T07:39:43;10.13;;;3.60;;
76953;SDS011;65893;51.698;-0.292;2023-02-21T07:42:09;9.13;;;3.25;;
76953;SDS011;65893;51.698;-0.292;2023-02-21T07:44:35;11.10;;;4.13;;
76953;SDS011;65893;51.698;-0.292;2023-02-21T07:47:01;11.85;;;3.88;;
76953;SDS011;65893;51.698;-0.292;2023-02-21T07:49:27;9.82;;;3.45;;
76953;SDS011;65893;51.698;-0.292;2023-02-21T07:51:53;9.93;;;3.58;;
76953;SDS011;65893;51.698;-0.292;2023-02-21T07:54:19;11.23;;;3.95;;
76953;SDS011;65893;51.698;-0.292;2023-02-21T07:56:47;8.32;;;3.58;;
76953;SDS011;65893;51.698;-0.292;2023-02-21T07:59:14;11.05;;;3.80;;
76953;SDS011;65893;51.698;-0.292;2023-02-21T08:01:40;9.70;;;3.72;;
76953;SDS011;65893;51.698;-0.292;2023-02-21T08:04:06;9.02;;;2.88;;
76953;SDS011;65893;51.698;-0.292;2023-02-21T08:06:33;9.27;;;3.58;;
76953;SDS011;65893;51.698;-0.292;2023-02-21T08:08:59;9.57;;;3.35;;
76953;SDS011;65893;51.698;-0.292;2023-02-21T08:11:25;10.57;;;3.45;;
76953;SDS011;65893;51.698;-0.292;2023-02-21T08:13:54;9.90;;;3.60;;
76953;SDS011;65893;51.698;-0.292;2023-02-21T08:16:20;9.55;;;3.35;;
76953;SDS011;65893;51.698;-0.292;2023-02-21T08:18:46;10.10;;;3.67;;
76953;SDS011;65893;51.698;-0.292;2023-02-21T08:21:18;11.13;;;4.78;;
76953;SDS011;65893;51.698;-0.292;2023-02-21T08:23:44;12.88;;;3.00;;
76953;SDS011;65893;51.698;-0.292;2023-02-21T08:26:10;8.65;;;3.17;;
76953;SDS011;65893;51.698;-0.292;2023-02-21T08:28:36;12.18;;;3.67;;
76953;SDS011;65893;51.698;-0.292;2023-02-21T08:31:02;10.27;;;3.55;;
76953;SDS011;65893;51.698;-0.292;2023-02-21T08:33:28;10.07;;;3.83;;
76953;SDS011;65893;51.698;-0.292;2023-02-21T08:35:56;9.50;;;3.28;;
76953;SDS011;65893;51.698;-0.292;2023-02-21T08:38:22;11.30;;;3.35;;
76953;SDS011;65893;51.698;-0.292;2023-02-21T08:40:48;11.10;;;3.35;;
76953;SDS011;65893;51.698;-0.292;2023-02-21T08:43:15;9.27;;;2.97;;
76953;SDS011;65893;51.698;-0.292;2023-02-21T08:45:41;7.65;;;2.70;;
76953;SDS011;65893;51.698;-0.292;2023-02-21T08:48:07;10.50;;;2.58;;
76953;SDS011;65893;51.698;-0.292;2023-02-21T08:50:33;9.55;;;3.20;;
76953;SDS011;65893;51.698;-0.292;2023-02-21T08:52:59;9.30;;;3.13;;
76953;SDS011;65893;51.698;-0.292;2023-02-21T08:55:25;9.43;;;3.60;;
76953;SDS011;65893;51.698;-0.292;2023-02-21T08:57:52;11.05;;;3.83;;
76953;SDS011;65893;51.698;-0.292;2023-02-21T09:00:19;10.20;;;3.15;;
76953;SDS011;65893;51.698;-0.292;2023-02-21T09:02:51;10.00;;;3.40;;
76953;SDS011;65893;51.698;-0.292;2023-02-21T09:05:19;9.50;;;3.38;;
76953;SDS011;65893;51.698;-0.292;2023-02-21T09:07:47;8.60;;;3.15;;
76953;SDS011;65893;51.698;-0.292;2023-02-21T09:10:14;11.60;;;3.33;;
76953;SDS011;65893;51.698;-0.292;2023-02-21T09:12:40;9.93;;;3.50;;
76953;SDS011;65893;51.698;-0.292;2023-02-21T09:15:06;10.30;;;3.38;;
76953;SDS011;65893;51.698;-0.292;2023-02-21T09:17:33;7.90;;;2.63;;
76953;SDS011;65893;51.698;-0.292;2023-02-21T09:20:03;8.85;;;2.38;;
76953;SDS011;65893;51.698;-0.292;2023-02-21T09:22:30;7.78;;;2.90;;
76953;SDS011;65893;51.698;-0.292;2023-02-21T09:24:56;8.88;;;3.17;;
76953;SDS011;65893;51.698;-0.292;2023-02-21T09:27:22;9.40;;;3.38;;
76953;SDS011;65893;51.698;-0.292;2023-02-21T09:30:22;7.47;;;2.50;;
76953;SDS011;65893;51.698;-0.292;2023-02-21T09:32:48;8.00;;;2.72;;
76953;SDS011;65893;51.698;-0.292;2023-02-21T09:35:14;9.70;;;3.70;;
76953;SDS011;65893;51.698;-0.292;2023-02-21T09:37:40;10.23;;;3.17;;
76953;SDS011;65893;51.698;-0.292;2023-02-21T09:40:11;9.70;;;3.53;;
76953;SDS011;65893;51.698;-0.292;2023-02-21T09:42:40;7.75;;;2.90;;
76953;SDS011;65893;51.698;-0.292;2023-02-21T09:45:12;9.43;;;3.08;;
76953;SDS011;65893;51.698;-0.292;2023-02-21T09:47:38;7.85;;;2.78;;
76953;SDS011;65893;51.698;-0.292;2023-02-21T09:50:06;8.57;;;3.15;;
76953;SDS011;65893;51.698;-0.292;2023-02-21T09:52:34;9.48;;;3.58;;
76953;SDS011;65893;51.698;-0.292;2023-02-21T09:55:04;10.32;;;3.47;;
76953;SDS011;65893;51.698;-0.292;2023-02-21T09:57:32;10.35;;;3.83;;
76953;SDS011;65893;51.698;-0.292;2023-02-21T10:00:05;9.68;;;3.17;;
76953;SDS011;65893;51.698;-0.292;2023-02-21T10:07:53;13.95;;;4.47;;
76953;SDS011;65893;51.698;-0.292;2023-02-21T10:10:30;12.27;;;4.15;;
76953;SDS011;65893;51.698;-0.292;2023-02-21T10:15:36;11.63;;;3.92;;
76953;SDS011;65893;51.698;-0.292;2023-02-21T10:20:32;10.40;;;3.78;;
76953;SDS011;65893;51.698;-0.292;2023-02-21T10:23:01;11.48;;;3.88;;
76953;SDS011;65893;51.698;-0.292;2023-02-21T10:25:31;10.13;;;3.90;;
76953;SDS011;65893;51.698;-0.292;2023-02-21T10:28:00;13.50;;;5.03;;
76953;SDS011;65893;51.698;-0.292;2023-02-21T10:30:34;11.40;;;4.43;;
76953;SDS011;65893;51.698;-0.292;2023-02-21T10:33:00;13.38;;;4.70;;
76953;SDS011;65893;51.698;-0.292;2023-02-21T10:35:36;14.82;;;4.63;;
76953;SDS011;65893;51.698;-0.292;2023-02-21T10:38:05;15.25;;;5.63;;
76953;SDS011;65893;51.698;-0.292;2023-02-21T10:43:06;16.20;;;5.57;;
76953;SDS011;65893;51.698;-0.292;2023-02-21T10:45:39;16.00;;;6.13;;
76953;SDS011;65893;51.698;-0.292;2023-02-21T10:48:08;19.40;;;7.63;;
76953;SDS011;65893;51.698;-0.292;2023-02-21T10:50:39;17.35;;;6.97;;
76953;SDS011;65893;51.698;-0.292;2023-02-21T10:53:05;18.25;;;7.20;;
76953;SDS011;65893;51.698;-0.292;2023-02-21T10:55:32;17.88;;;8.02;;
76953;SDS011;65893;51.698;-0.292;2023-02-21T10:58:04;17.67;;;8.15;;
76953;SDS011;65893;51.698;-0.292;2023-02-21T11:00:32;20.08;;;8.50;;
76953;SDS011;65893;51.698;-0.292;2023-02-21T11:03:06;18.45;;;7.85;;
76953;SDS011;65893;51.698;-0.292;2023-02-21T11:05:37;20.20;;;8.52;;
76953;SDS011;65893;51.698;-0.292;2023-02-21T11:08:04;17.80;;;8.40;;
76953;SDS011;65893;51.698;-0.292;2023-02-21T11:10:36;19.42;;;8.48;;
76953;SDS011;65893;51.698;-0.292;2023-02-21T11:15:36;19.58;;;8.73;;
76953;SDS011;65893;51.698;-0.292;2023-02-21T11:18:10;21.23;;;9.63;;
76953;SDS011;65893;51.698;-0.292;2023-02-21T11:20:37;19.38;;;9.55;;
76953;SDS011;65893;51.698;-0.292;2023-02-21T11:23:03;21.42;;;9.57;;
76953;SDS011;65893;51.698;-0.292;2023-02-21T11:25:32;22.15;;;9.73;;
76953;SDS011;65893;51.698;-0.292;2023-02-21T11:30:39;21.25;;;9.75;;
76953;SDS011;65893;51.698;-0.292;2023-02-21T11:33:07;19.05;;;8.43;;
76953;SDS011;65893;51.698;-0.292;2023-02-21T11:35:44;16.88;;;7.93;;
76953;SDS011;65893;51.698;-0.292;2023-02-21T11:38:28;19.58;;;9.57;;
76953;SDS011;65893;51.698;-0.292;2023-02-21T11:40:55;20.27;;;9.30;;
76953;SDS011;65893;51.698;-0.292;2023-02-21T11:43:30;21.75;;;9.85;;
76953;SDS011;65893;51.698;-0.292;2023-02-21T11:48:41;17.88;;;9.15;;
76953;SDS011;65893;51.698;-0.292;2023-02-21T11:51:17;20.67;;;8.95;;
76953;SDS011;65893;51.698;-0.292;2023-02-21T11:53:46;19.25;;;9.70;;
76953;SDS011;65893;51.698;-0.292;2023-02-21T11:56:16;16.92;;;8.90;;
76953;SDS011;65893;51.698;-0.292;2023-02-21T12:03:50;16.25;;;7.05;;
76953;SDS011;65893;51.698;-0.292;2023-02-21T12:06:42;16.92;;;7.95;;
76953;SDS011;65893;51.698;-0.292;2023-02-21T12:14:14;21.58;;;9.45;;
76953;SDS011;65893;51.698;-0.292;2023-02-21T12:17:00;22.33;;;9.63;;
76953;SDS011;65893;51.698;-0.292;2023-02-21T12:27:12;18.40;;;9.85;;
76953;SDS011;65893;51.698;-0.292;2023-02-21T12:29:53;19.92;;;9.57;;
76953;SDS011;65893;51.698;-0.292;2023-02-21T12:48:18;22.27;;;10.95;;
76953;SDS011;65893;51.698;-0.292;2023-02-21T12:50:50;19.92;;;9.68;;
76953;SDS011;65893;51.698;-0.292;2023-02-21T12:53:19;19.02;;;10.55;;
76953;SDS011;65893;51.698;-0.292;2023-02-21T12:56:00;19.92;;;9.93;;
76953;SDS011;65893;51.698;-0.292;2023-02-21T12:58:29;17.42;;;8.50;;
76953;SDS011;65893;51.698;-0.292;2023-02-21T13:01:16;19.73;;;10.05;;
76953;SDS011;65893;51.698;-0.292;2023-02-21T13:14:16;19.02;;;9.80;;
76953;SDS011;65893;51.698;-0.292;2023-02-21T13:16:42;22.17;;;10.10;;
76953;SDS011;65893;51.698;-0.292;2023-02-21T13:19:09;17.95;;;9.52;;
76953;SDS011;65893;51.698;-0.292;2023-02-21T13:24:13;15.38;;;8.57;;
76953;SDS011;65893;51.698;-0.292;2023-02-21T13:27:06;15.75;;;8.40;;
76953;SDS011;65893;51.698;-0.292;2023-02-21T13:29:36;17.15;;;9.10;;
76953;SDS011;65893;51.698;-0.292;2023-02-21T13:34:36;17.75;;;9.05;;
76953;SDS011;65893;51.698;-0.292;2023-02-21T13:37:07;16.85;;;8.68;;
76953;SDS011;65893;51.698;-0.292;2023-02-21T13:39:38;17.40;;;8.10;;
76953;SDS011;65893;51.698;-0.292;2023-02-21T13:42:10;18.83;;;9.45;;
76953;SDS011;65893;51.698;-0.292;2023-02-21T13:44:41;17.50;;;9.30;;
76953;SDS011;65893;51.698;-0.292;2023-02-21T13:47:18;17.00;;;8.15;;
76953;SDS011;65893;51.698;-0.292;2023-02-21T13:49:54;17.92;;;8.35;;
76953;SDS011;65893;51.698;-0.292;2023-02-21T13:57:32;17.52;;;7.50;;
76953;SDS011;65893;51.698;-0.292;2023-02-21T14:00:11;14.18;;;7.78;;
76953;SDS011;65893;51.698;-0.292;2023-02-21T14:05:20;17.48;;;8.95;;
76953;SDS011;65893;51.698;-0.292;2023-02-21T14:07:57;18.45;;;9.98;;
76953;SDS011;65893;51.698;-0.292;2023-02-21T14:10:38;17.73;;;9.73;;
76953;SDS011;65893;51.698;-0.292;2023-02-21T14:16:07;21.90;;;10.32;;
76953;SDS011;65893;51.698;-0.292;2023-02-21T14:21:08;21.35;;;11.38;;
76953;SDS011;65893;51.698;-0.292;2023-02-21T14:26:01;18.40;;;10.98;;
76953;SDS011;65893;51.698;-0.292;2023-02-21T14:31:12;21.20;;;11.02;;
76953;SDS011;65893;51.698;-0.292;2023-02-21T14:33:39;19.27;;;10.75;;
76953;SDS011;65893;51.698;-0.292;2023-02-21T14:36:06;21.15;;;10.55;;
76953;SDS011;65893;51.698;-0.292;2023-02-21T14:38:37;21.63;;;12.43;;
76953;SDS011;65893;51.698;-0.292;2023-02-21T14:43:41;16.55;;;10.15;;
76953;SDS011;65893;51.698;-0.292;2023-02-21T15:02:24;18.50;;;9.13;;
76953;SDS011;65893;51.698;-0.292;2023-02-21T15:08:05;14.40;;;8.02;;
76953;SDS011;65893;51.698;-0.292;2023-02-21T15:12:41;19.20;;;9.93;;
76953;SDS011;65893;51.698;-0.292;2023-02-21T15:15:14;20.88;;;9.73;;
76953;SDS011;65893;51.698;-0.292;2023-02-21T15:17:41;20.50;;;9.40;;
76953;SDS011;65893;51.698;-0.292;2023-02-21T15:20:14;20.35;;;10.00;;
76953;SDS011;65893;51.698;-0.292;2023-02-21T15:22:41;18.02;;;10.45;;
76953;SDS011;65893;51.698;-0.292;2023-02-21T15:27:34;17.98;;;9.77;;
76953;SDS011;65893;51.698;-0.292;2023-02-21T15:30:07;16.20;;;8.80;;
76953;SDS011;65893;51.698;-0.292;2023-02-21T15:32:38;19.30;;;9.27;;
76953;SDS011;65893;51.698;-0.292;2023-02-21T15:35:05;17.40;;;8.35;;
76953;SDS011;65893;51.698;-0.292;2023-02-21T15:37:32;15.98;;;8.38;;
76953;SDS011;65893;51.698;-0.292;2023-02-21T15:40:04;21.63;;;10.23;;
76953;SDS011;65893;51.698;-0.292;2023-02-21T15:42:36;18.75;;;9.48;;
76953;SDS011;65893;51.698;-0.292;2023-02-21T15:45:04;18.30;;;8.95;;
76953;SDS011;65893;51.698;-0.292;2023-02-21T15:47:32;19.20;;;9.52;;
76953;SDS011;65893;51.698;-0.292;2023-02-21T15:50:07;19.30;;;10.00;;
76953;SDS011;65893;51.698;-0.292;2023-02-21T15:52:37;17.17;;;8.52;;
76953;SDS011;65893;51.698;-0.292;2023-02-21T16:00:26;23.95;;;9.05;;
76953;SDS011;65893;51.698;-0.292;2023-02-21T16:05:38;20.63;;;9.80;;
76953;SDS011;65893;51.698;-0.292;2023-02-21T16:08:04;20.45;;;9.35;;
76953;SDS011;65893;51.698;-0.292;2023-02-21T16:10:30;15.55;;;8.75;;
76953;SDS011;65893;51.698;-0.292;2023-02-21T16:12:57;18.55;;;9.30;;
76953;SDS011;65893;51.698;-0.292;2023-02-21T16:15:25;19.48;;;8.82;;
76953;SDS011;65893;51.698;-0.292;2023-02-21T16:17:56;16.52;;;8.05;;
76953;SDS011;65893;51.698;-0.292;2023-02-21T16:20:26;17.17;;;8.30;;
76953;SDS011;65893;51.698;-0.292;2023-02-21T16:28:22;16.75;;;8.07;;
76953;SDS011;65893;51.698;-0.292;2023-02-21T16:30:48;18.42;;;8.88;;
76953;SDS011;65893;51.698;-0.292;2023-02-21T16:33:14;18.95;;;8.48;;
76953;SDS011;65893;51.698;-0.292;2023-02-21T16:35:41;20.55;;;9.10;;
76953;SDS011;65893;51.698;-0.292;2023-02-21T16:38:15;17.38;;;8.75;;
76953;SDS011;65893;51.698;-0.292;2023-02-21T16:40:41;19.15;;;9.35;;
76953;SDS011;65893;51.698;-0.292;2023-02-21T16:43:26;16.83;;;8.48;;
76953;SDS011;65893;51.698;-0.292;2023-02-21T16:45:54;18.23;;;8.50;;
76953;SDS011;65893;51.698;-0.292;2023-02-21T16:48:25;17.92;;;9.20;;
76953;SDS011;65893;51.698;-0.292;2023-02-21T16:50:56;16.92;;;8.93;;
76953;SDS011;65893;51.698;-0.292;2023-02-21T16:53:22;19.75;;;10.52;;
76953;SDS011;65893;51.698;-0.292;2023-02-21T16:55:51;17.50;;;9.80;;
76953;SDS011;65893;51.698;-0.292;2023-02-21T16:58:33;18.17;;;9.77;;
76953;SDS011;65893;51.698;-0.292;2023-02-21T17:01:02;20.10;;;9.32;;
76953;SDS011;65893;51.698;-0.292;2023-02-21T17:03:28;19.83;;;10.00;;
76953;SDS011;65893;51.698;-0.292;2023-02-21T17:05:55;18.45;;;9.52;;
76953;SDS011;65893;51.698;-0.292;2023-02-21T17:08:21;21.58;;;10.80;;
76953;SDS011;65893;51.698;-0.292;2023-02-21T17:10:49;18.35;;;8.80;;
76953;SDS011;65893;51.698;-0.292;2023-02-21T17:13:19;19.23;;;9.40;;
76953;SDS011;65893;51.698;-0.292;2023-02-21T17:15:45;21.88;;;9.80;;
76953;SDS011;65893;51.698;-0.292;2023-02-21T17:18:11;18.83;;;9.65;;
76953;SDS011;65893;51.698;-0.292;2023-02-21T17:20:38;20.95;;;9.50;;
76953;SDS011;65893;51.698;-0.292;2023-02-21T17:23:04;22.63;;;10.27;;
76953;SDS011;65893;51.698;-0.292;2023-02-21T17:25:30;22.13;;;10.20;;
76953;SDS011;65893;51.698;-0.292;2023-02-21T17:27:58;22.52;;;10.30;;
76953;SDS011;65893;51.698;-0.292;2023-02-21T17:30:24;18.80;;;9.85;;
76953;SDS011;65893;51.698;-0.292;2023-02-21T17:32:51;20.08;;;9.90;;
76953;SDS011;65893;51.698;-0.292;2023-02-21T17:35:17;20.83;;;9.43;;
76953;SDS011;65893;51.698;-0.292;2023-02-21T17:37:44;25.52;;;10.43;;
76953;SDS011;65893;51.698;-0.292;2023-02-21T17:40:20;20.15;;;10.10;;
76953;SDS011;65893;51.698;-0.292;2023-02-21T17:42:46;23.05;;;10.55;;
76953;SDS011;65893;51.698;-0.292;2023-02-21T17:45:14;24.00;;;11.60;;
76953;SDS011;65893;51.698;-0.292;2023-02-21T17:47:41;26.90;;;11.60;;
76953;SDS011;65893;51.698;-0.292;2023-02-21T17:50:07;24.70;;;11.23;;
76953;SDS011;65893;51.698;-0.292;2023-02-21T17:52:33;25.67;;;11.82;;